Time;durP1;ratioP1;P1;durP2;ratioP2;P2;SDS_P1;SDS_P2;PMS_P1;PMS_P2;Temp;Humidity;BMP_temperature;BMP_pressure;BME280_temperature;BME280_humidity;BME280_pressure;Samples;Min_cycle;Max_cycle;Signal;HPM_P1;HPM_P2
2023/05/13 00:00:43;;;;;;;;;;;14.30;99.50;;;;;;5045980;28;19934;-69
2023/05/13 00:03:09;;;;;;;;;;;14.20;99.40;;;;;;5045948;28;20410;-69
2023/05/13 00:05:34;;;;;;;;;;;14.20;99.50;;;;;;5027777;28;19908;-68
2023/05/13 00:08:01;;;;;;;;;;;14.20;99.50;;;;;;5066746;27;20011;-68
2023/05/13 00:10:26;;;;;;;;;;;14.20;99.50;;;;;;5045556;28;20288;-68
2023/05/13 00:12:52;;;;;;;;;;;14.20;99.50;;;;;;5027770;28;19917;-68
2023/05/13 00:15:17;;;;;;;;;;;14.20;99.40;;;;;;5028154;28;19912;-69
2023/05/13 00:17:43;;;;;;;;;;;14.10;99.50;;;;;;5045713;28;20374;-69
2023/05/13 00:20:09;;;;;;;;;;;14.10;99.60;;;;;;5045426;28;20306;-69
2023/05/13 00:22:34;;;;;;;;;;;14.10;99.50;;;;;;5045364;28;19921;-69
2023/05/13 00:24:59;;;;;;;;;;;14.10;99.60;;;;;;5045385;28;19909;-69
2023/05/13 00:27:25;;;;;;;;;;;14.00;99.50;;;;;;5045630;28;20457;-69
2023/05/13 00:29:51;;;;;;;;;;;14.00;99.50;;;;;;5045637;28;19919;-69
2023/05/13 00:32:16;;;;;;;;;;;14.00;99.50;;;;;;5027534;28;19956;-69
2023/05/13 00:34:42;;;;;;;;;;;14.00;99.40;;;;;;5045236;28;19967;-69
2023/05/13 00:37:09;;;;;;;;;;;14.00;99.50;;;;;;5044997;28;19917;-68
2023/05/13 00:39:34;;;;;;;;;;;14.00;99.50;;;;;;5045173;28;19972;-68
2023/05/13 00:42:02;;;;;;;;;;;14.00;99.50;;;;;;5044846;28;19991;-68
2023/05/13 00:44:27;;;;;;;;;;;13.90;99.40;;;;;;5045159;28;20330;-68
2023/05/13 00:46:53;;;;;;;;;;;13.90;99.50;;;;;;5045370;28;19934;-69
2023/05/13 00:49:18;;;;;;;;;;;13.90;99.50;;;;;;5045157;28;19939;-68
2023/05/13 00:51:44;;;;;;;;;;;13.90;99.50;;;;;;5044838;28;19952;-68
2023/05/13 00:54:10;;;;;;;;;;;13.80;99.50;;;;;;5045110;28;19915;-68
2023/05/13 00:56:36;;;;;;;;;;;13.80;99.50;;;;;;5045082;28;19916;-68
2023/05/13 00:59:02;;;;;;;;;;;13.80;99.50;;;;;;5044823;28;19916;-69
2023/05/13 01:01:33;;;;;;;;;;;13.80;99.50;;;;;;5044985;28;20593;-69
2023/05/13 01:03:59;;;;;;;;;;;13.80;99.40;;;;;;5044821;28;19916;-69
2023/05/13 01:06:44;;;;;;;;;;;13.80;99.40;;;;;;5039635;28;19910;-69
2023/05/13 01:09:28;;;;;;;;;;;13.70;99.40;;;;;;5049413;28;19909;-68
2023/05/13 01:11:54;;;;;;;;;;;13.70;99.30;;;;;;5044609;28;19944;-68
2023/05/13 01:14:25;;;;;;;;;;;13.70;99.40;;;;;;5044889;28;19913;-68
2023/05/13 01:16:54;;;;;;;;;;;13.70;99.40;;;;;;5044916;28;19913;-68
2023/05/13 01:19:20;;;;;;;;;;;13.70;99.40;;;;;;5028429;28;20021;-69
2023/05/13 01:21:54;;;;;;;;;;;13.60;99.30;;;;;;5048032;28;20341;-69
2023/05/13 01:24:20;;;;;;;;;;;13.60;99.50;;;;;;5063563;28;19920;-68
2023/05/13 01:26:45;;;;;;;;;;;13.60;99.40;;;;;;5048138;28;19913;-68
2023/05/13 01:29:11;;;;;;;;;;;13.60;99.40;;;;;;5030347;28;19913;-68
2023/05/13 01:31:37;;;;;;;;;;;13.60;99.40;;;;;;5048140;28;20004;-69
2023/05/13 01:34:04;;;;;;;;;;;13.60;99.40;;;;;;5027486;28;19917;-69
2023/05/13 01:36:31;;;;;;;;;;;13.50;99.40;;;;;;5011665;28;19993;-68
2023/05/13 01:38:56;;;;;;;;;;;13.50;99.40;;;;;;5116840;27;19956;-68
2023/05/13 01:41:22;;;;;;;;;;;13.50;99.30;;;;;;5047681;28;20005;-68
2023/05/13 01:43:48;;;;;;;;;;;13.50;99.40;;;;;;5047638;28;19913;-69
2023/05/13 01:46:14;;;;;;;;;;;13.50;99.30;;;;;;5047798;28;20701;-68
2023/05/13 01:48:39;;;;;;;;;;;13.40;99.30;;;;;;5048033;28;19913;-68
2023/05/13 01:51:05;;;;;;;;;;;13.40;99.30;;;;;;5047793;28;20007;-68
2023/05/13 01:53:31;;;;;;;;;;;13.40;99.30;;;;;;5047624;28;19917;-69
2023/05/13 01:55:56;;;;;;;;;;;13.40;99.40;;;;;;5029682;28;19913;-68
2023/05/13 01:58:22;;;;;;;;;;;13.40;99.30;;;;;;5047703;28;19912;-68
2023/05/13 02:00:47;;;;;;;;;;;13.40;99.30;;;;;;5047863;28;19913;-68
2023/05/13 02:03:13;;;;;;;;;;;13.40;99.30;;;;;;5047595;28;20011;-69
2023/05/13 02:05:38;;;;;;;;;;;13.40;99.40;;;;;;5013479;28;19909;-68
2023/05/13 02:08:05;;;;;;;;;;;13.30;99.30;;;;;;5069077;27;20266;-69
2023/05/13 02:10:30;;;;;;;;;;;13.30;99.30;;;;;;5047512;28;19913;-69
2023/05/13 02:12:56;;;;;;;;;;;13.30;99.30;;;;;;5047424;28;19913;-68
2023/05/13 02:15:21;;;;;;;;;;;13.30;99.30;;;;;;5047521;28;19920;-69
2023/05/13 02:17:47;;;;;;;;;;;13.30;99.30;;;;;;5047267;28;19909;-69
2023/05/13 02:20:13;;;;;;;;;;;13.20;99.30;;;;;;5047121;28;19912;-68
2023/05/13 02:22:38;;;;;;;;;;;13.20;99.20;;;;;;5047306;28;19940;-68
2023/05/13 02:25:04;;;;;;;;;;;13.20;99.30;;;;;;5047101;28;20460;-69
2023/05/13 02:27:30;;;;;;;;;;;13.20;99.30;;;;;;5047382;28;19953;-68
2023/05/13 02:29:55;;;;;;;;;;;13.20;99.30;;;;;;5046824;28;19917;-68
2023/05/13 02:32:21;;;;;;;;;;;13.20;99.20;;;;;;5047342;28;20354;-69
2023/05/13 02:34:46;;;;;;;;;;;13.20;99.20;;;;;;5029376;28;20003;-68
2023/05/13 02:37:12;;;;;;;;;;;13.10;99.20;;;;;;5048690;27;19912;-69
2023/05/13 02:39:37;;;;;;;;;;;13.10;99.20;;;;;;5047026;28;19920;-69
2023/05/13 02:42:03;;;;;;;;;;;13.10;99.10;;;;;;5046680;28;19996;-68
2023/05/13 02:44:29;;;;;;;;;;;13.10;99.20;;;;;;5046931;28;19954;-68
2023/05/13 02:46:54;;;;;;;;;;;13.10;99.10;;;;;;5029019;28;19908;-68
2023/05/13 02:49:20;;;;;;;;;;;13.10;99.20;;;;;;5046923;28;20005;-68
2023/05/13 02:51:45;;;;;;;;;;;13.00;99.10;;;;;;5046761;28;19913;-68
2023/05/13 02:54:10;;;;;;;;;;;13.00;99.10;;;;;;5046842;28;19920;-68
2023/05/13 02:56:36;;;;;;;;;;;13.00;99.10;;;;;;5046896;28;19996;-68
2023/05/13 02:59:01;;;;;;;;;;;13.00;99.00;;;;;;5046629;28;19917;-68
2023/05/13 03:01:27;;;;;;;;;;;12.90;99.10;;;;;;5046952;28;19909;-68
2023/05/13 03:03:52;;;;;;;;;;;13.00;99.00;;;;;;5046335;28;19913;-68
2023/05/13 03:06:18;;;;;;;;;;;12.90;99.00;;;;;;5041276;28;20522;-68
2023/05/13 03:08:43;;;;;;;;;;;12.90;99.00;;;;;;5046325;28;19921;-68
2023/05/13 03:11:09;;;;;;;;;;;12.90;99.00;;;;;;5046472;28;20307;-68
2023/05/13 03:13:35;;;;;;;;;;;12.90;99.00;;;;;;5046509;28;19916;-68
2023/05/13 03:16:00;;;;;;;;;;;12.90;99.00;;;;;;5046295;28;19912;-68
2023/05/13 03:18:27;;;;;;;;;;;12.80;98.90;;;;;;5046331;28;19977;-68
2023/05/13 03:20:53;;;;;;;;;;;12.80;98.90;;;;;;5046205;28;19975;-69
2023/05/13 03:23:18;;;;;;;;;;;12.80;98.90;;;;;;5046195;28;20307;-68
2023/05/13 03:25:44;;;;;;;;;;;12.80;98.90;;;;;;5046259;28;19920;-68
2023/05/13 03:28:09;;;;;;;;;;;12.80;98.90;;;;;;5046304;28;19958;-68
2023/05/13 03:30:35;;;;;;;;;;;12.80;98.90;;;;;;5045850;28;19909;-68
2023/05/13 03:33:00;;;;;;;;;;;12.70;98.80;;;;;;5045907;28;19920;-68
2023/05/13 03:35:26;;;;;;;;;;;12.70;98.80;;;;;;5046087;28;19965;-69
2023/05/13 03:37:51;;;;;;;;;;;12.70;98.80;;;;;;5046112;28;19936;-68
2023/05/13 03:40:18;;;;;;;;;;;12.70;98.80;;;;;;5045869;28;19964;-68
2023/05/13 03:42:43;;;;;;;;;;;12.70;98.80;;;;;;5045083;28;19915;-68
2023/05/13 03:45:09;;;;;;;;;;;12.70;98.80;;;;;;5046103;28;19919;-68
2023/05/13 03:47:34;;;;;;;;;;;12.70;99.10;;;;;;5028132;28;20373;-69
2023/05/13 03:50:00;;;;;;;;;;;12.70;98.70;;;;;;5045484;28;19961;-69
2023/05/13 03:52:25;;;;;;;;;;;12.60;98.80;;;;;;5045671;28;19948;-68
2023/05/13 03:54:51;;;;;;;;;;;12.60;98.70;;;;;;5045775;28;19916;-68
2023/05/13 03:57:17;;;;;;;;;;;12.70;98.70;;;;;;5046027;28;19965;-68
2023/05/13 03:59:42;;;;;;;;;;;12.60;98.70;;;;;;5045664;28;19924;-68
2023/05/13 04:02:08;;;;;;;;;;;12.60;98.70;;;;;;5045678;28;19912;-68
2023/05/13 04:04:33;;;;;;;;;;;12.60;98.70;;;;;;5045682;28;20385;-68
2023/05/13 04:06:59;;;;;;;;;;;12.60;98.70;;;;;;5040337;28;19913;-68
2023/05/13 04:09:24;;;;;;;;;;;12.50;98.60;;;;;;5045629;28;19913;-68
2023/05/13 04:11:50;;;;;;;;;;;12.50;98.70;;;;;;5045547;28;19920;-68
2023/05/13 04:14:15;;;;;;;;;;;12.50;98.60;;;;;;5028106;28;19913;-68
2023/05/13 04:16:41;;;;;;;;;;;12.50;98.60;;;;;;5046083;28;20549;-68
2023/05/13 04:19:06;;;;;;;;;;;12.50;98.60;;;;;;5045406;28;19917;-68
2023/05/13 04:21:32;;;;;;;;;;;12.50;98.60;;;;;;5045290;28;19921;-68
2023/05/13 04:23:57;;;;;;;;;;;12.50;98.60;;;;;;5045222;28;19917;-69
2023/05/13 04:26:24;;;;;;;;;;;12.50;98.60;;;;;;5045426;28;20254;-69
2023/05/13 04:28:49;;;;;;;;;;;12.50;98.60;;;;;;5045509;28;19909;-68
2023/05/13 04:31:15;;;;;;;;;;;12.50;98.60;;;;;;5060381;27;20410;-68
2023/05/13 04:33:40;;;;;;;;;;;12.50;98.60;;;;;;5104328;27;19914;-69
2023/05/13 04:36:06;;;;;;;;;;;12.50;98.60;;;;;;5096185;27;19916;-68
2023/05/13 04:38:32;;;;;;;;;;;12.50;98.60;;;;;;5085467;27;19921;-68
2023/05/13 04:40:57;;;;;;;;;;;12.40;98.60;;;;;;5061631;27;19921;-69
2023/05/13 04:43:23;;;;;;;;;;;12.40;98.60;;;;;;5035294;28;19943;-69
2023/05/13 04:45:48;;;;;;;;;;;12.40;98.60;;;;;;5045047;28;19908;-68
2023/05/13 04:48:14;;;;;;;;;;;12.40;98.60;;;;;;5044837;28;19912;-68
2023/05/13 04:50:43;;;;;;;;;;;12.40;98.50;;;;;;5041387;28;19920;-69
2023/05/13 04:53:08;;;;;;;;;;;12.40;98.60;;;;;;5045567;28;19921;-69
2023/05/13 04:55:34;;;;;;;;;;;12.40;98.50;;;;;;5048085;28;19917;-69
2023/05/13 04:57:59;;;;;;;;;;;12.40;98.50;;;;;;5051458;27;20044;-68
2023/05/13 05:00:25;;;;;;;;;;;12.40;98.50;;;;;;5115084;27;19921;-69
2023/05/13 05:02:50;;;;;;;;;;;12.40;98.50;;;;;;5042035;27;19913;-68
2023/05/13 05:05:16;;;;;;;;;;;12.40;98.50;;;;;;5048097;28;20007;-68
2023/05/13 05:07:41;;;;;;;;;;;12.40;98.50;;;;;;5047896;28;19913;-68
2023/05/13 05:10:07;;;;;;;;;;;12.40;98.50;;;;;;5030027;28;19935;-68
2023/05/13 05:12:33;;;;;;;;;;;12.40;98.40;;;;;;5048170;28;19932;-69
2023/05/13 05:14:58;;;;;;;;;;;12.40;98.50;;;;;;5048093;28;20510;-69
2023/05/13 05:17:25;;;;;;;;;;;12.40;98.40;;;;;;5048335;28;20449;-68
2023/05/13 05:19:50;;;;;;;;;;;12.40;98.50;;;;;;5047942;28;19917;-69
2023/05/13 05:22:16;;;;;;;;;;;12.40;98.40;;;;;;5047723;28;20669;-69
2023/05/13 05:24:41;;;;;;;;;;;12.40;98.40;;;;;;5047643;28;19919;-68
2023/05/13 05:27:07;;;;;;;;;;;12.40;98.40;;;;;;5048173;28;19912;-69
2023/05/13 05:29:34;;;;;;;;;;;12.50;98.40;;;;;;5029916;28;20266;-69
2023/05/13 05:32:00;;;;;;;;;;;12.40;98.40;;;;;;5032404;28;19935;-69
2023/05/13 05:34:25;;;;;;;;;;;12.50;98.40;;;;;;5048338;28;19912;-69
2023/05/13 05:36:51;;;;;;;;;;;12.40;98.30;;;;;;5047835;28;20440;-68
2023/05/13 05:39:16;;;;;;;;;;;12.40;98.40;;;;;;5117068;27;19917;-68
2023/05/13 05:41:42;;;;;;;;;;;12.50;98.40;;;;;;5074107;27;19913;-68
2023/05/13 05:44:07;;;;;;;;;;;12.50;98.40;;;;;;5047704;28;19917;-69
2023/05/13 05:46:33;;;;;;;;;;;12.50;98.30;;;;;;5047654;28;20364;-69
2023/05/13 05:48:58;;;;;;;;;;;12.40;98.40;;;;;;5046349;28;19952;-69
2023/05/13 05:51:24;;;;;;;;;;;12.40;98.40;;;;;;5047481;28;20004;-69
2023/05/13 05:53:49;;;;;;;;;;;12.50;98.40;;;;;;5047474;28;19921;-69
2023/05/13 05:56:15;;;;;;;;;;;12.50;98.40;;;;;;5047251;28;19924;-69
2023/05/13 05:58:40;;;;;;;;;;;12.50;98.40;;;;;;5047282;28;19916;-69
2023/05/13 06:01:06;;;;;;;;;;;12.50;98.40;;;;;;5047170;28;19913;-69
2023/05/13 06:03:31;;;;;;;;;;;12.50;98.40;;;;;;5024949;28;20427;-69
2023/05/13 06:05:57;;;;;;;;;;;12.50;98.40;;;;;;5043069;28;20400;-69
2023/05/13 06:08:28;;;;;;;;;;;12.50;98.40;;;;;;5044694;28;19909;-69
2023/05/13 06:10:54;;;;;;;;;;;12.50;98.30;;;;;;5047477;28;20369;-69
2023/05/13 06:13:20;;;;;;;;;;;12.50;98.40;;;;;;5047622;28;19920;-69
2023/05/13 06:15:45;;;;;;;;;;;12.50;98.30;;;;;;5047673;28;19913;-69
2023/05/13 06:18:11;;;;;;;;;;;12.50;98.40;;;;;;5047431;28;19981;-69
2023/05/13 06:20:36;;;;;;;;;;;12.50;98.30;;;;;;5046995;28;19955;-69
2023/05/13 06:23:02;;;;;;;;;;;12.50;98.30;;;;;;5043441;27;19917;-69
2023/05/13 06:25:27;;;;;;;;;;;12.50;98.30;;;;;;5046339;28;20349;-69
2023/05/13 06:27:53;;;;;;;;;;;12.50;98.30;;;;;;5046880;28;19966;-69
2023/05/13 06:30:18;;;;;;;;;;;12.50;98.40;;;;;;5046400;28;19939;-69
2023/05/13 06:32:44;;;;;;;;;;;12.50;98.40;;;;;;5046867;28;19909;-69
2023/05/13 06:35:09;;;;;;;;;;;12.50;98.30;;;;;;5115560;27;19909;-69
2023/05/13 06:37:35;;;;;;;;;;;12.50;98.40;;;;;;5046959;28;20544;-69
2023/05/13 06:40:00;;;;;;;;;;;12.50;98.40;;;;;;5046972;28;20322;-69
2023/05/13 06:42:26;;;;;;;;;;;12.50;98.40;;;;;;5047068;28;20011;-69
2023/05/13 06:44:51;;;;;;;;;;;12.60;98.30;;;;;;5047029;28;20445;-69
2023/05/13 06:47:17;;;;;;;;;;;12.60;98.20;;;;;;5047181;28;19913;-69
2023/05/13 06:49:43;;;;;;;;;;;12.60;98.20;;;;;;5046841;28;20019;-69
2023/05/13 06:52:09;;;;;;;;;;;12.70;98.20;;;;;;5046819;28;19920;-69
2023/05/13 06:54:34;;;;;;;;;;;12.70;98.20;;;;;;5046765;28;19909;-69
2023/05/13 06:57:00;;;;;;;;;;;12.70;98.20;;;;;;5046823;28;19908;-69
2023/05/13 06:59:25;;;;;;;;;;;12.80;98.20;;;;;;5028744;28;19916;-69
2023/05/13 07:01:51;;;;;;;;;;;12.80;98.10;;;;;;5061968;28;20500;-69
2023/05/13 07:04:16;;;;;;;;;;;12.90;98.00;;;;;;5028740;28;20676;-69
2023/05/13 07:06:42;;;;;;;;;;;12.90;97.90;;;;;;5045766;28;20479;-69
2023/05/13 07:09:08;;;;;;;;;;;13.00;97.80;;;;;;5045491;28;19917;-69
2023/05/13 07:11:34;;;;;;;;;;;13.00;97.80;;;;;;5045645;28;19966;-69
2023/05/13 07:14:00;;;;;;;;;;;13.10;97.70;;;;;;5045592;28;20525;-69
2023/05/13 07:16:25;;;;;;;;;;;13.10;97.70;;;;;;5044607;28;19965;-69
2023/05/13 07:18:53;;;;;;;;;;;13.10;97.60;;;;;;5045473;28;19983;-69
2023/05/13 07:21:18;;;;;;;;;;;13.20;97.50;;;;;;5045511;28;19931;-69
2023/05/13 07:23:44;;;;;;;;;;;13.30;97.50;;;;;;5045386;28;19996;-69
2023/05/13 07:26:09;;;;;;;;;;;13.20;97.50;;;;;;5045608;28;20557;-69
2023/05/13 07:28:35;;;;;;;;;;;13.30;97.50;;;;;;5027571;28;19917;-69
2023/05/13 07:31:01;;;;;;;;;;;13.30;97.50;;;;;;5045460;28;19920;-69
2023/05/13 07:33:26;;;;;;;;;;;13.30;97.40;;;;;;5045234;28;19913;-69
2023/05/13 07:35:52;;;;;;;;;;;13.30;97.50;;;;;;5044993;28;20377;-69
2023/05/13 07:38:17;;;;;;;;;;;13.30;97.50;;;;;;5045291;28;19923;-69
2023/05/13 07:40:43;;;;;;;;;;;13.30;97.50;;;;;;5044830;28;19913;-69
2023/05/13 07:43:09;;;;;;;;;;;13.30;97.50;;;;;;5045122;28;19965;-69
2023/05/13 07:45:34;;;;;;;;;;;13.40;97.40;;;;;;5045275;28;19978;-69
2023/05/13 07:48:00;;;;;;;;;;;13.40;97.40;;;;;;5045098;28;19942;-69
2023/05/13 07:50:25;;;;;;;;;;;13.40;97.30;;;;;;5044911;28;19989;-69
2023/05/13 07:52:51;;;;;;;;;;;13.40;97.20;;;;;;5045052;28;19919;-69
2023/05/13 07:55:16;;;;;;;;;;;13.50;97.20;;;;;;5045086;28;20334;-69
2023/05/13 07:57:42;;;;;;;;;;;13.50;97.10;;;;;;5045135;28;20410;-69
2023/05/13 08:00:08;;;;;;;;;;;13.60;97.10;;;;;;5044971;28;20265;-69
2023/05/13 08:02:37;;;;;;;;;;;13.60;97.30;;;;;;5044736;28;19940;-69
2023/05/13 08:05:03;;;;;;;;;;;13.60;97.00;;;;;;5044789;28;19920;-69
2023/05/13 08:07:28;;;;;;;;;;;13.70;97.10;;;;;;5044313;28;20297;-69
2023/05/13 08:09:54;;;;;;;;;;;13.70;97.00;;;;;;5044715;28;19909;-69
2023/05/13 08:12:20;;;;;;;;;;;13.70;97.00;;;;;;5045049;28;19913;-69
2023/05/13 08:14:45;;;;;;;;;;;13.70;96.90;;;;;;5045125;28;20003;-69
2023/05/13 08:17:11;;;;;;;;;;;13.70;96.90;;;;;;5045210;28;20348;-69
2023/05/13 08:19:37;;;;;;;;;;;13.80;96.90;;;;;;5044637;28;19920;-69
2023/05/13 08:22:02;;;;;;;;;;;13.80;96.90;;;;;;5044252;28;19956;-69
2023/05/13 08:24:28;;;;;;;;;;;13.80;96.80;;;;;;5044665;28;19913;-69
2023/05/13 08:26:53;;;;;;;;;;;13.80;96.70;;;;;;5044562;28;19912;-69
2023/05/13 08:29:19;;;;;;;;;;;13.90;96.80;;;;;;5059716;28;19965;-69
2023/05/13 08:31:44;;;;;;;;;;;13.90;96.70;;;;;;5044593;28;19913;-70
2023/05/13 08:34:10;;;;;;;;;;;13.90;96.70;;;;;;5044677;28;19917;-70
2023/05/13 08:36:36;;;;;;;;;;;14.00;96.70;;;;;;5044508;28;19913;-69
2023/05/13 08:39:01;;;;;;;;;;;14.00;96.70;;;;;;5044406;28;20007;-70
2023/05/13 08:41:28;;;;;;;;;;;14.00;96.60;;;;;;5044420;28;20269;-69
2023/05/13 08:43:55;;;;;;;;;;;14.00;96.60;;;;;;5044641;28;19909;-70
2023/05/13 08:46:23;;;;;;;;;;;14.10;96.50;;;;;;5044213;28;19952;-70
2023/05/13 08:48:49;;;;;;;;;;;14.10;96.50;;;;;;5044216;28;20490;-70
2023/05/13 08:51:15;;;;;;;;;;;14.10;96.50;;;;;;5044151;28;19913;-69
2023/05/13 08:53:41;;;;;;;;;;;14.20;96.50;;;;;;5043947;28;20606;-69
2023/05/13 08:56:08;;;;;;;;;;;14.20;96.40;;;;;;5044068;28;20421;-69
2023/05/13 08:58:33;;;;;;;;;;;14.30;96.40;;;;;;5044199;28;19917;-69
2023/05/13 09:00:59;;;;;;;;;;;14.30;96.40;;;;;;5044261;28;20288;-70
2023/05/13 09:03:26;;;;;;;;;;;14.40;96.30;;;;;;5044165;28;19938;-70
2023/05/13 09:05:51;;;;;;;;;;;14.30;96.30;;;;;;5043830;28;19913;-69
2023/05/13 09:08:17;;;;;;;;;;;14.40;96.20;;;;;;5043896;28;19912;-69
2023/05/13 09:10:43;;;;;;;;;;;14.50;96.20;;;;;;5040791;28;20277;-69
2023/05/13 09:13:10;;;;;;;;;;;14.50;96.30;;;;;;5044281;28;19923;-69
2023/05/13 09:15:35;;;;;;;;;;;14.60;96.20;;;;;;5044431;28;19916;-69
2023/05/13 09:18:03;;;;;;;;;;;14.60;96.10;;;;;;5044576;28;19913;-69
2023/05/13 09:20:29;;;;;;;;;;;14.70;96.00;;;;;;5044322;28;19917;-70
2023/05/13 09:23:00;;;;;;;;;;;14.70;96.00;;;;;;5044327;28;20373;-70
2023/05/13 09:25:26;;;;;;;;;;;14.80;95.90;;;;;;5044230;28;20552;-70
2023/05/13 09:27:53;;;;;;;;;;;14.80;95.80;;;;;;5044578;28;19908;-69
2023/05/13 09:30:19;;;;;;;;;;;14.90;95.80;;;;;;5016601;28;20447;-69
2023/05/13 09:33:02;;;;;;;;;;;14.90;95.70;;;;;;5025924;28;19917;-69
2023/05/13 09:35:29;;;;;;;;;;;15.00;95.80;;;;;;5113203;28;19913;-70
2023/05/13 09:37:55;;;;;;;;;;;15.00;95.70;;;;;;5044367;28;20032;-70
2023/05/13 09:40:20;;;;;;;;;;;15.10;95.80;;;;;;5045460;28;19917;-70
2023/05/13 09:42:46;;;;;;;;;;;15.10;95.70;;;;;;5047821;28;20008;-69
2023/05/13 09:45:12;;;;;;;;;;;15.20;96.10;;;;;;5029912;28;19913;-71
2023/05/13 09:47:39;;;;;;;;;;;15.30;95.70;;;;;;5047684;28;19917;-70
2023/05/13 09:50:05;;;;;;;;;;;15.30;95.60;;;;;;5047121;28;20321;-71
2023/05/13 09:52:31;;;;;;;;;;;15.40;95.50;;;;;;5047020;28;19916;-70
2023/05/13 09:54:57;;;;;;;;;;;15.50;95.40;;;;;;5047038;28;19969;-70
2023/05/13 09:57:22;;;;;;;;;;;15.60;95.30;;;;;;5047290;28;20339;-71
2023/05/13 09:59:48;;;;;;;;;;;15.60;95.30;;;;;;5046223;28;20011;-71
2023/05/13 10:02:14;;;;;;;;;;;15.70;95.20;;;;;;5046903;28;19920;-72
2023/05/13 10:04:40;;;;;;;;;;;15.80;95.20;;;;;;5047610;28;19912;-71
2023/05/13 10:07:07;;;;;;;;;;;15.80;95.10;;;;;;5046983;28;20365;-71
2023/05/13 10:09:34;;;;;;;;;;;15.90;95.00;;;;;;5046655;28;19916;-71
2023/05/13 10:12:00;;;;;;;;;;;15.90;94.90;;;;;;5047230;28;19962;-72
2023/05/13 10:14:26;;;;;;;;;;;16.00;94.90;;;;;;5047449;28;19942;-71
2023/05/13 10:16:52;;;;;;;;;;;16.10;94.90;;;;;;5047733;28;19913;-70
2023/05/13 10:19:18;;;;;;;;;;;16.10;95.00;;;;;;5047688;28;20565;-71
2023/05/13 10:21:44;;;;;;;;;;;16.20;94.80;;;;;;5046944;28;20007;-71
2023/05/13 10:24:10;;;;;;;;;;;16.30;95.10;;;;;;5047372;28;20329;-71
2023/05/13 10:26:36;;;;;;;;;;;16.40;95.10;;;;;;5047296;28;20356;-71
2023/05/13 10:29:02;;;;;;;;;;;16.40;95.20;;;;;;5047270;28;19959;-71
2023/05/13 10:31:28;;;;;;;;;;;16.50;95.10;;;;;;5047052;28;19917;-71
2023/05/13 10:33:53;;;;;;;;;;;16.60;94.80;;;;;;5046759;28;19969;-71
2023/05/13 10:36:32;;;;;;;;;;;16.80;94.70;;;;;;5047302;28;19916;-71
2023/05/13 10:39:07;;;;;;;;;;;16.90;94.50;;;;;;5047297;28;19917;-71
2023/05/13 10:41:35;;;;;;;;;;;16.90;94.40;;;;;;5047093;28;20311;-71
2023/05/13 10:44:02;;;;;;;;;;;17.00;94.60;;;;;;5046828;28;19909;-72
2023/05/13 10:46:27;;;;;;;;;;;17.10;94.80;;;;;;5047208;28;19927;-72
2023/05/13 10:48:58;;;;;;;;;;;17.20;94.70;;;;;;5047178;28;19909;-71
2023/05/13 10:51:24;;;;;;;;;;;17.40;94.80;;;;;;5028925;28;19917;-72
2023/05/13 10:53:50;;;;;;;;;;;17.50;94.90;;;;;;5046520;28;19921;-72
2023/05/13 10:56:20;;;;;;;;;;;17.60;94.70;;;;;;5039299;28;20642;-72
2023/05/13 10:59:01;;;;;;;;;;;17.70;94.80;;;;;;5046971;28;19916;-72
2023/05/13 11:01:30;;;;;;;;;;;17.80;95.00;;;;;;5046812;28;19913;-72
2023/05/13 11:03:57;;;;;;;;;;;17.90;95.00;;;;;;5046807;28;19930;-72
2023/05/13 11:06:29;;;;;;;;;;;18.00;94.70;;;;;;5041271;28;19954;-72
2023/05/13 11:08:55;;;;;;;;;;;18.20;94.90;;;;;;5046766;28;19963;-72
2023/05/13 11:11:21;;;;;;;;;;;18.30;94.20;;;;;;5046426;28;20628;-72
2023/05/13 11:13:53;;;;;;;;;;;18.40;94.30;;;;;;5045071;28;20414;-72
2023/05/13 11:16:19;;;;;;;;;;;18.50;94.80;;;;;;5046723;28;19913;-72
2023/05/13 11:18:45;;;;;;;;;;;18.60;94.90;;;;;;5034656;28;20037;-72
2023/05/13 11:21:10;;;;;;;;;;;18.70;95.10;;;;;;5036076;28;20009;-72
2023/05/13 11:23:54;;;;;;;;;;;18.80;94.90;;;;;;5046321;28;19917;-72
2023/05/13 11:26:20;;;;;;;;;;;18.90;94.60;;;;;;5046368;28;19954;-72
2023/05/13 11:29:02;;;;;;;;;;;19.00;94.20;;;;;;5046481;28;19913;-72
2023/05/13 11:31:40;;;;;;;;;;;19.20;94.60;;;;;;5030245;28;19917;-72
2023/05/13 11:34:06;;;;;;;;;;;19.20;94.80;;;;;;5026457;28;19947;-72
2023/05/13 11:36:32;;;;;;;;;;;19.30;94.90;;;;;;5027666;28;20023;-72
2023/05/13 11:39:27;;;;;;;;;;;19.40;94.80;;;;;;5046052;28;19916;-73
2023/05/13 11:41:56;;;;;;;;;;;19.50;94.70;;;;;;5047041;28;19956;-72
2023/05/13 11:44:24;;;;;;;;;;;19.60;94.20;;;;;;5046414;28;20000;-73
2023/05/13 11:46:54;;;;;;;;;;;19.70;94.70;;;;;;5045534;28;19917;-73
2023/05/13 11:49:32;;;;;;;;;;;19.80;94.70;;;;;;5045071;28;20723;-73
2023/05/13 11:52:01;;;;;;;;;;;19.90;94.70;;;;;;5027678;28;19919;-73
2023/05/13 11:54:27;;;;;;;;;;;19.90;94.70;;;;;;5046193;28;19992;-72
2023/05/13 11:56:53;;;;;;;;;;;20.00;94.70;;;;;;5041315;27;19992;-72
2023/05/13 11:59:19;;;;;;;;;;;20.00;94.70;;;;;;5042204;28;19917;-72
2023/05/13 12:01:44;;;;;;;;;;;20.00;94.90;;;;;;5045679;28;19917;-72
2023/05/13 12:04:10;;;;;;;;;;;20.10;95.00;;;;;;5045154;28;20383;-72
2023/05/13 12:06:41;;;;;;;;;;;20.20;95.20;;;;;;5045447;28;20672;-72
2023/05/13 12:09:07;;;;;;;;;;;20.30;94.70;;;;;;5045563;28;19909;-73
2023/05/13 12:11:33;;;;;;;;;;;20.40;94.80;;;;;;5045737;28;19909;-72
2023/05/13 12:13:59;;;;;;;;;;;20.50;95.00;;;;;;5027647;28;20374;-72
2023/05/13 12:16:25;;;;;;;;;;;20.60;94.50;;;;;;5045830;28;19916;-72
2023/05/13 12:19:05;;;;;;;;;;;20.70;94.60;;;;;;5045763;28;20036;-72
2023/05/13 12:21:31;;;;;;;;;;;20.80;94.30;;;;;;5044655;28;19917;-72
2023/05/13 12:23:57;;;;;;;;;;;20.80;94.30;;;;;;5044791;28;19999;-72
2023/05/13 12:26:23;;;;;;;;;;;20.80;94.10;;;;;;5045102;28;20291;-72
2023/05/13 12:28:55;;;;;;;;;;;20.90;93.50;;;;;;5044724;28;19909;-72
2023/05/13 12:31:20;;;;;;;;;;;21.00;93.40;;;;;;5045197;28;19916;-72
2023/05/13 12:33:48;;;;;;;;;;;21.10;93.10;;;;;;5044521;28;19935;-72
2023/05/13 12:36:22;;;;;;;;;;;21.10;93.00;;;;;;5044651;28;19957;-72
2023/05/13 12:39:08;;;;;;;;;;;21.20;92.90;;;;;;5044833;28;19920;-72
2023/05/13 12:41:38;;;;;;;;;;;21.20;93.10;;;;;;5044693;28;19955;-72
2023/05/13 12:44:03;;;;;;;;;;;21.10;93.40;;;;;;5044474;28;19912;-73
2023/05/13 12:46:29;;;;;;;;;;;21.10;93.50;;;;;;5044887;28;19908;-72
2023/05/13 12:48:55;;;;;;;;;;;21.00;93.90;;;;;;5044767;28;19924;-72
2023/05/13 12:51:21;;;;;;;;;;;21.00;94.40;;;;;;5044539;28;20270;-72
2023/05/13 12:53:47;;;;;;;;;;;21.00;94.70;;;;;;5044446;28;19919;-72
2023/05/13 12:56:12;;;;;;;;;;;21.00;94.80;;;;;;5044341;28;19993;-72
2023/05/13 12:58:38;;;;;;;;;;;20.90;95.00;;;;;;5026674;28;19928;-72
2023/05/13 13:01:03;;;;;;;;;;;20.90;95.00;;;;;;5043834;28;19909;-72
2023/05/13 13:03:29;;;;;;;;;;;20.80;95.00;;;;;;5043676;28;20691;-72
2023/05/13 13:05:56;;;;;;;;;;;20.80;95.20;;;;;;5043286;28;19962;-72
2023/05/13 13:08:22;;;;;;;;;;;20.80;95.30;;;;;;5042113;28;19913;-71
2023/05/13 13:10:48;;;;;;;;;;;20.70;95.40;;;;;;5043222;28;19924;-72
2023/05/13 13:13:13;;;;;;;;;;;20.70;95.60;;;;;;5044192;28;19920;-71
2023/05/13 13:15:39;;;;;;;;;;;20.70;95.60;;;;;;5047587;28;19909;-71
2023/05/13 13:18:04;;;;;;;;;;;20.70;95.40;;;;;;5047665;28;19933;-71
2023/05/13 13:20:30;;;;;;;;;;;20.60;94.90;;;;;;5047330;28;19913;-71
2023/05/13 13:22:56;;;;;;;;;;;20.70;94.30;;;;;;5047577;28;19917;-71
2023/05/13 13:25:21;;;;;;;;;;;20.80;94.10;;;;;;5047560;27;19913;-72
2023/05/13 13:27:47;;;;;;;;;;;20.80;93.70;;;;;;5047552;28;19916;-72
2023/05/13 13:30:13;;;;;;;;;;;20.80;93.50;;;;;;5026698;28;19913;-71
2023/05/13 13:32:38;;;;;;;;;;;20.70;93.10;;;;;;5047266;28;19936;-71
2023/05/13 13:35:04;;;;;;;;;;;20.70;93.20;;;;;;5047159;28;20315;-71
2023/05/13 13:37:30;;;;;;;;;;;20.70;93.40;;;;;;5047403;28;20537;-71
2023/05/13 13:39:55;;;;;;;;;;;20.60;93.60;;;;;;5029308;28;20047;-71
2023/05/13 13:42:21;;;;;;;;;;;20.60;93.70;;;;;;5047327;28;19917;-71
2023/05/13 13:44:47;;;;;;;;;;;20.50;93.90;;;;;;5047363;28;20396;-72
2023/05/13 13:47:12;;;;;;;;;;;20.60;93.90;;;;;;5047128;28;19917;-72
2023/05/13 13:49:38;;;;;;;;;;;20.70;93.80;;;;;;5047366;28;20268;-72
2023/05/13 13:52:03;;;;;;;;;;;20.70;93.80;;;;;;5046756;28;20325;-72
2023/05/13 13:54:29;;;;;;;;;;;20.80;93.50;;;;;;5047144;28;20481;-72
2023/05/13 13:56:54;;;;;;;;;;;20.90;93.40;;;;;;5046922;28;20364;-71
2023/05/13 13:59:20;;;;;;;;;;;21.00;92.90;;;;;;5047240;28;19917;-72
2023/05/13 14:01:46;;;;;;;;;;;21.10;92.30;;;;;;5029211;28;20327;-72
2023/05/13 14:04:12;;;;;;;;;;;21.30;92.00;;;;;;5046861;28;20242;-73
2023/05/13 14:06:37;;;;;;;;;;;21.40;91.90;;;;;;5028419;28;20729;-72
2023/05/13 14:09:03;;;;;;;;;;;21.60;91.30;;;;;;5046483;28;19913;-72
2023/05/13 14:11:29;;;;;;;;;;;21.70;91.20;;;;;;5046734;28;19913;-72